sensor_id;sensor_type;location;lat;lon;timestamp;temperature;humidity
78297;DHT22;67555;47.660;19.622;2023-11-18T00:01:08;3.90;71.80
78297;DHT22;67555;47.660;19.622;2023-11-18T00:03:35;3.90;72.00
78297;DHT22;67555;47.660;19.622;2023-11-18T00:06:00;3.90;72.20
78297;DHT22;67555;47.660;19.622;2023-11-18T00:08:26;3.90;72.50
78297;DHT22;67555;47.660;19.622;2023-11-18T00:10:52;3.80;72.50
78297;DHT22;67555;47.660;19.622;2023-11-18T00:13:17;3.80;72.50
78297;DHT22;67555;47.660;19.622;2023-11-18T00:15:43;3.80;72.50
78297;DHT22;67555;47.660;19.622;2023-11-18T00:18:11;3.80;72.60
78297;DHT22;67555;47.660;19.622;2023-11-18T00:20:37;3.80;72.60
78297;DHT22;67555;47.660;19.622;2023-11-18T00:23:03;3.70;72.80
78297;DHT22;67555;47.660;19.622;2023-11-18T00:25:31;3.70;72.80
78297;DHT22;67555;47.660;19.622;2023-11-18T00:28:00;3.70;72.90
78297;DHT22;67555;47.660;19.622;2023-11-18T00:30:26;3.70;72.90
78297;DHT22;67555;47.660;19.622;2023-11-18T00:32:53;3.70;72.90
78297;DHT22;67555;47.660;19.622;2023-11-18T00:35:19;3.70;72.90
78297;DHT22;67555;47.660;19.622;2023-11-18T00:37:45;3.70;73.10
78297;DHT22;67555;47.660;19.622;2023-11-18T00:40:11;3.70;73.20
78297;DHT22;67555;47.660;19.622;2023-11-18T00:42:37;3.70;73.30
78297;DHT22;67555;47.660;19.622;2023-11-18T00:45:04;3.70;73.30
78297;DHT22;67555;47.660;19.622;2023-11-18T00:47:30;3.70;73.50
78297;DHT22;67555;47.660;19.622;2023-11-18T00:49:56;3.70;73.50
78297;DHT22;67555;47.660;19.622;2023-11-18T00:52:23;3.60;73.70
78297;DHT22;67555;47.660;19.622;2023-11-18T00:54:48;3.60;73.60
78297;DHT22;67555;47.660;19.622;2023-11-18T00:57:14;3.70;73.50
78297;DHT22;67555;47.660;19.622;2023-11-18T00:59:43;3.70;73.50
78297;DHT22;67555;47.660;19.622;2023-11-18T01:02:09;3.70;73.40
78297;DHT22;67555;47.660;19.622;2023-11-18T01:04:34;3.70;73.30
78297;DHT22;67555;47.660;19.622;2023-11-18T01:07:00;3.70;73.20
78297;DHT22;67555;47.660;19.622;2023-11-18T01:09:26;3.70;72.90
78297;DHT22;67555;47.660;19.622;2023-11-18T01:11:52;3.80;72.90
78297;DHT22;67555;47.660;19.622;2023-11-18T01:14:18;3.80;72.80
78297;DHT22;67555;47.660;19.622;2023-11-18T01:16:44;3.80;72.50
78297;DHT22;67555;47.660;19.622;2023-11-18T01:19:10;3.90;72.50
78297;DHT22;67555;47.660;19.622;2023-11-18T01:21:36;3.90;72.50
78297;DHT22;67555;47.660;19.622;2023-11-18T01:24:02;3.80;72.50
78297;DHT22;67555;47.660;19.622;2023-11-18T01:26:28;3.90;72.40
78297;DHT22;67555;47.660;19.622;2023-11-18T01:28:54;3.90;72.20
78297;DHT22;67555;47.660;19.622;2023-11-18T01:31:21;3.90;72.20
78297;DHT22;67555;47.660;19.622;2023-11-18T01:33:47;3.90;72.30
78297;DHT22;67555;47.660;19.622;2023-11-18T01:36:15;3.90;72.40
78297;DHT22;67555;47.660;19.622;2023-11-18T01:38:41;3.80;72.40
78297;DHT22;67555;47.660;19.622;2023-11-18T01:41:07;3.80;72.60
78297;DHT22;67555;47.660;19.622;2023-11-18T01:43:34;3.90;72.60
78297;DHT22;67555;47.660;19.622;2023-11-18T01:46:02;3.80;72.50
78297;DHT22;67555;47.660;19.622;2023-11-18T01:48:29;3.70;72.70
78297;DHT22;67555;47.660;19.622;2023-11-18T01:50:59;3.70;72.90
78297;DHT22;67555;47.660;19.622;2023-11-18T01:53:25;3.70;73.00
78297;DHT22;67555;47.660;19.622;2023-11-18T01:55:52;3.70;73.00
78297;DHT22;67555;47.660;19.622;2023-11-18T01:58:19;3.70;73.00
78297;DHT22;67555;47.660;19.622;2023-11-18T02:00:45;3.70;73.10
78297;DHT22;67555;47.660;19.622;2023-11-18T02:03:15;3.70;73.20
78297;DHT22;67555;47.660;19.622;2023-11-18T02:05:40;3.70;73.20
78297;DHT22;67555;47.660;19.622;2023-11-18T02:08:08;3.70;73.10
78297;DHT22;67555;47.660;19.622;2023-11-18T02:10:49;3.70;73.10
78297;DHT22;67555;47.660;19.622;2023-11-18T02:13:23;3.80;73.10
78297;DHT22;67555;47.660;19.622;2023-11-18T02:15:56;3.80;73.00
78297;DHT22;67555;47.660;19.622;2023-11-18T02:18:24;3.80;72.80
78297;DHT22;67555;47.660;19.622;2023-11-18T02:20:52;3.90;72.70
78297;DHT22;67555;47.660;19.622;2023-11-18T02:23:18;3.90;72.40
78297;DHT22;67555;47.660;19.622;2023-11-18T02:25:45;3.90;72.40
78297;DHT22;67555;47.660;19.622;2023-11-18T02:28:11;3.90;72.50
78297;DHT22;67555;47.660;19.622;2023-11-18T02:30:38;3.90;72.40
78297;DHT22;67555;47.660;19.622;2023-11-18T02:35:46;3.90;72.40
78297;DHT22;67555;47.660;19.622;2023-11-18T02:38:16;3.90;72.20
78297;DHT22;67555;47.660;19.622;2023-11-18T02:40:44;3.90;72.20
78297;DHT22;67555;47.660;19.622;2023-11-18T02:43:11;3.90;72.30
78297;DHT22;67555;47.660;19.622;2023-11-18T02:45:37;3.90;72.50
78297;DHT22;67555;47.660;19.622;2023-11-18T02:48:04;3.80;72.50
78297;DHT22;67555;47.660;19.622;2023-11-18T02:50:32;3.90;72.50
78297;DHT22;67555;47.660;19.622;2023-11-18T02:52:57;3.90;72.70
78297;DHT22;67555;47.660;19.622;2023-11-18T02:55:24;3.80;72.60
78297;DHT22;67555;47.660;19.622;2023-11-18T02:57:51;3.80;72.70
78297;DHT22;67555;47.660;19.622;2023-11-18T03:00:17;3.80;72.70
78297;DHT22;67555;47.660;19.622;2023-11-18T03:02:50;3.70;72.90
78297;DHT22;67555;47.660;19.622;2023-11-18T03:05:17;3.70;73.00
78297;DHT22;67555;47.660;19.622;2023-11-18T03:07:49;3.70;73.10
78297;DHT22;67555;47.660;19.622;2023-11-18T03:10:16;3.70;73.20
78297;DHT22;67555;47.660;19.622;2023-11-18T03:12:52;3.70;73.40
78297;DHT22;67555;47.660;19.622;2023-11-18T03:15:18;3.70;73.50
78297;DHT22;67555;47.660;19.622;2023-11-18T03:17:50;3.60;73.80
78297;DHT22;67555;47.660;19.622;2023-11-18T03:20:17;3.60;73.80
78297;DHT22;67555;47.660;19.622;2023-11-18T03:22:46;3.60;73.90
78297;DHT22;67555;47.660;19.622;2023-11-18T03:25:13;3.60;74.10
78297;DHT22;67555;47.660;19.622;2023-11-18T03:27:39;3.60;74.20
78297;DHT22;67555;47.660;19.622;2023-11-18T03:30:07;3.60;74.30
78297;DHT22;67555;47.660;19.622;2023-11-18T03:32:37;3.60;74.40
78297;DHT22;67555;47.660;19.622;2023-11-18T03:35:04;3.60;74.50
78297;DHT22;67555;47.660;19.622;2023-11-18T03:37:40;3.60;74.50
78297;DHT22;67555;47.660;19.622;2023-11-18T03:40:11;3.60;74.50
78297;DHT22;67555;47.660;19.622;2023-11-18T03:42:43;3.60;74.40
78297;DHT22;67555;47.660;19.622;2023-11-18T03:45:12;3.60;74.40
78297;DHT22;67555;47.660;19.622;2023-11-18T03:47:40;3.70;74.50
78297;DHT22;67555;47.660;19.622;2023-11-18T03:50:06;3.70;74.50
78297;DHT22;67555;47.660;19.622;2023-11-18T03:52:38;3.70;74.50
78297;DHT22;67555;47.660;19.622;2023-11-18T03:55:04;3.70;74.60
78297;DHT22;67555;47.660;19.622;2023-11-18T03:57:32;3.70;74.60
78297;DHT22;67555;47.660;19.622;2023-11-18T03:59:58;3.70;74.70
78297;DHT22;67555;47.660;19.622;2023-11-18T04:02:23;3.70;74.80
78297;DHT22;67555;47.660;19.622;2023-11-18T04:04:50;3.70;74.90
78297;DHT22;67555;47.660;19.622;2023-11-18T04:07:16;3.70;75.00
78297;DHT22;67555;47.660;19.622;2023-11-18T04:09:41;3.60;75.20
78297;DHT22;67555;47.660;19.622;2023-11-18T04:12:09;3.60;75.20
78297;DHT22;67555;47.660;19.622;2023-11-18T04:14:36;3.60;75.20
78297;DHT22;67555;47.660;19.622;2023-11-18T04:17:02;3.60;75.50
78297;DHT22;67555;47.660;19.622;2023-11-18T04:19:28;3.60;75.50
78297;DHT22;67555;47.660;19.622;2023-11-18T04:21:53;3.60;75.50
78297;DHT22;67555;47.660;19.622;2023-11-18T04:24:19;3.60;75.50
78297;DHT22;67555;47.660;19.622;2023-11-18T04:26:45;3.70;75.50
78297;DHT22;67555;47.660;19.622;2023-11-18T04:29:11;3.60;75.40
78297;DHT22;67555;47.660;19.622;2023-11-18T04:31:37;3.60;75.50
78297;DHT22;67555;47.660;19.622;2023-11-18T04:34:03;3.60;75.70
78297;DHT22;67555;47.660;19.622;2023-11-18T04:36:30;3.60;75.70
78297;DHT22;67555;47.660;19.622;2023-11-18T04:38:56;3.60;75.70
78297;DHT22;67555;47.660;19.622;2023-11-18T04:41:22;3.50;75.90
78297;DHT22;67555;47.660;19.622;2023-11-18T04:43:49;3.50;75.90
78297;DHT22;67555;47.660;19.622;2023-11-18T04:46:15;3.60;76.00
78297;DHT22;67555;47.660;19.622;2023-11-18T04:48:41;3.50;76.00
78297;DHT22;67555;47.660;19.622;2023-11-18T04:51:07;3.60;76.20
78297;DHT22;67555;47.660;19.622;2023-11-18T04:53:32;3.60;76.20
78297;DHT22;67555;47.660;19.622;2023-11-18T04:56:01;3.50;76.20
78297;DHT22;67555;47.660;19.622;2023-11-18T04:58:27;3.50;76.30
78297;DHT22;67555;47.660;19.622;2023-11-18T05:00:53;3.50;76.40
78297;DHT22;67555;47.660;19.622;2023-11-18T05:03:19;3.50;76.30
78297;DHT22;67555;47.660;19.622;2023-11-18T05:05:45;3.60;76.20
78297;DHT22;67555;47.660;19.622;2023-11-18T05:08:20;3.60;76.10
78297;DHT22;67555;47.660;19.622;2023-11-18T05:10:48;3.60;76.10
78297;DHT22;67555;47.660;19.622;2023-11-18T05:13:14;3.60;75.90
78297;DHT22;67555;47.660;19.622;2023-11-18T05:15:43;3.70;75.70
78297;DHT22;67555;47.660;19.622;2023-11-18T05:18:11;3.70;75.50
78297;DHT22;67555;47.660;19.622;2023-11-18T05:20:39;3.80;75.10
78297;DHT22;67555;47.660;19.622;2023-11-18T05:23:05;3.90;74.90
78297;DHT22;67555;47.660;19.622;2023-11-18T05:25:36;3.90;75.00
78297;DHT22;67555;47.660;19.622;2023-11-18T05:28:02;3.80;75.00
78297;DHT22;67555;47.660;19.622;2023-11-18T05:30:28;3.80;75.10
78297;DHT22;67555;47.660;19.622;2023-11-18T05:32:56;3.80;75.00
78297;DHT22;67555;47.660;19.622;2023-11-18T05:35:24;3.80;74.90
78297;DHT22;67555;47.660;19.622;2023-11-18T05:37:54;3.80;74.90
78297;DHT22;67555;47.660;19.622;2023-11-18T05:40:20;3.90;74.90
78297;DHT22;67555;47.660;19.622;2023-11-18T05:42:45;3.90;74.70
78297;DHT22;67555;47.660;19.622;2023-11-18T05:45:13;3.90;74.60
78297;DHT22;67555;47.660;19.622;2023-11-18T05:47:54;3.90;74.60
78297;DHT22;67555;47.660;19.622;2023-11-18T05:50:21;3.90;74.60
78297;DHT22;67555;47.660;19.622;2023-11-18T05:52:47;3.90;74.50
78297;DHT22;67555;47.660;19.622;2023-11-18T05:55:13;3.80;74.70
78297;DHT22;67555;47.660;19.622;2023-11-18T05:57:39;3.80;74.70
78297;DHT22;67555;47.660;19.622;2023-11-18T06:00:05;3.80;74.80
78297;DHT22;67555;47.660;19.622;2023-11-18T06:02:31;3.70;74.80
78297;DHT22;67555;47.660;19.622;2023-11-18T06:04:57;3.70;74.80
78297;DHT22;67555;47.660;19.622;2023-11-18T06:07:22;3.70;74.70
78297;DHT22;67555;47.660;19.622;2023-11-18T06:09:48;3.80;74.40
78297;DHT22;67555;47.660;19.622;2023-11-18T06:12:15;3.80;74.50
78297;DHT22;67555;47.660;19.622;2023-11-18T06:14:43;3.80;74.30
78297;DHT22;67555;47.660;19.622;2023-11-18T06:17:10;3.90;74.30
78297;DHT22;67555;47.660;19.622;2023-11-18T06:19:38;3.90;74.20
78297;DHT22;67555;47.660;19.622;2023-11-18T06:22:05;3.90;74.20
78297;DHT22;67555;47.660;19.622;2023-11-18T06:24:31;3.90;74.10
78297;DHT22;67555;47.660;19.622;2023-11-18T06:26:57;3.90;74.10
78297;DHT22;67555;47.660;19.622;2023-11-18T06:29:25;3.90;74.10
78297;DHT22;67555;47.660;19.622;2023-11-18T06:31:52;4.00;74.10
78297;DHT22;67555;47.660;19.622;2023-11-18T06:34:18;4.00;73.90
78297;DHT22;67555;47.660;19.622;2023-11-18T06:36:46;4.10;73.70
78297;DHT22;67555;47.660;19.622;2023-11-18T06:39:12;4.10;73.50
78297;DHT22;67555;47.660;19.622;2023-11-18T06:41:38;4.10;73.60
78297;DHT22;67555;47.660;19.622;2023-11-18T06:44:14;4.20;73.20
78297;DHT22;67555;47.660;19.622;2023-11-18T06:46:43;4.30;73.10
78297;DHT22;67555;47.660;19.622;2023-11-18T06:49:10;4.30;72.80
78297;DHT22;67555;47.660;19.622;2023-11-18T06:51:41;4.40;72.60
78297;DHT22;67555;47.660;19.622;2023-11-18T06:54:07;4.40;72.70
78297;DHT22;67555;47.660;19.622;2023-11-18T06:56:42;4.50;72.40
78297;DHT22;67555;47.660;19.622;2023-11-18T06:59:12;4.50;72.10
78297;DHT22;67555;47.660;19.622;2023-11-18T07:01:41;4.50;72.10
78297;DHT22;67555;47.660;19.622;2023-11-18T07:04:10;4.60;72.10
78297;DHT22;67555;47.660;19.622;2023-11-18T07:06:36;4.70;71.90
78297;DHT22;67555;47.660;19.622;2023-11-18T07:09:07;4.70;71.70
78297;DHT22;67555;47.660;19.622;2023-11-18T07:11:43;4.70;72.00
78297;DHT22;67555;47.660;19.622;2023-11-18T07:14:10;4.80;71.20
78297;DHT22;67555;47.660;19.622;2023-11-18T07:16:39;4.90;71.40
78297;DHT22;67555;47.660;19.622;2023-11-18T07:19:05;4.90;71.80
78297;DHT22;67555;47.660;19.622;2023-11-18T07:21:30;4.90;71.90
78297;DHT22;67555;47.660;19.622;2023-11-18T07:23:56;5.00;72.10
78297;DHT22;67555;47.660;19.622;2023-11-18T07:26:22;5.00;72.00
78297;DHT22;67555;47.660;19.622;2023-11-18T07:28:49;5.00;71.40
78297;DHT22;67555;47.660;19.622;2023-11-18T07:31:15;5.10;71.20
78297;DHT22;67555;47.660;19.622;2023-11-18T07:33:44;5.10;71.10
78297;DHT22;67555;47.660;19.622;2023-11-18T07:36:15;5.20;70.00
78297;DHT22;67555;47.660;19.622;2023-11-18T07:38:41;5.30;70.00
78297;DHT22;67555;47.660;19.622;2023-11-18T07:41:07;5.30;70.60
78297;DHT22;67555;47.660;19.622;2023-11-18T07:43:34;5.40;70.70
78297;DHT22;67555;47.660;19.622;2023-11-18T07:46:02;5.50;69.90
78297;DHT22;67555;47.660;19.622;2023-11-18T07:48:28;5.50;69.70
78297;DHT22;67555;47.660;19.622;2023-11-18T07:50:56;5.50;69.70
78297;DHT22;67555;47.660;19.622;2023-11-18T07:53:22;5.60;69.50
78297;DHT22;67555;47.660;19.622;2023-11-18T07:55:48;5.60;68.90
78297;DHT22;67555;47.660;19.622;2023-11-18T07:58:15;5.70;69.00
78297;DHT22;67555;47.660;19.622;2023-11-18T08:00:43;5.70;68.70
78297;DHT22;67555;47.660;19.622;2023-11-18T08:03:13;5.80;68.40
78297;DHT22;67555;47.660;19.622;2023-11-18T08:05:41;5.90;67.90
78297;DHT22;67555;47.660;19.622;2023-11-18T08:08:10;5.90;67.60
78297;DHT22;67555;47.660;19.622;2023-11-18T08:10:37;6.00;68.00
78297;DHT22;67555;47.660;19.622;2023-11-18T08:13:07;6.00;67.60
78297;DHT22;67555;47.660;19.622;2023-11-18T08:15:40;6.10;67.00
78297;DHT22;67555;47.660;19.622;2023-11-18T08:18:09;6.10;67.30
78297;DHT22;67555;47.660;19.622;2023-11-18T08:20:38;6.20;67.60
78297;DHT22;67555;47.660;19.622;2023-11-18T08:23:04;6.20;67.20
78297;DHT22;67555;47.660;19.622;2023-11-18T08:25:50;6.30;67.60
78297;DHT22;67555;47.660;19.622;2023-11-18T08:28:16;6.30;67.20
78297;DHT22;67555;47.660;19.622;2023-11-18T08:30:42;6.40;67.20
78297;DHT22;67555;47.660;19.622;2023-11-18T08:33:07;6.40;67.40
78297;DHT22;67555;47.660;19.622;2023-11-18T08:35:36;6.40;67.70
78297;DHT22;67555;47.660;19.622;2023-11-18T08:38:02;6.50;67.30
78297;DHT22;67555;47.660;19.622;2023-11-18T08:40:30;6.50;67.20
78297;DHT22;67555;47.660;19.622;2023-11-18T08:42:55;6.50;66.80
78297;DHT22;67555;47.660;19.622;2023-11-18T08:45:26;6.50;66.40
78297;DHT22;67555;47.660;19.622;2023-11-18T08:47:58;6.60;66.30
78297;DHT22;67555;47.660;19.622;2023-11-18T08:50:24;6.60;66.50
78297;DHT22;67555;47.660;19.622;2023-11-18T08:52:54;6.70;65.90
78297;DHT22;67555;47.660;19.622;2023-11-18T08:55:27;6.70;65.10
78297;DHT22;67555;47.660;19.622;2023-11-18T08:58:08;6.70;65.50
78297;DHT22;67555;47.660;19.622;2023-11-18T09:00:44;6.80;65.70
78297;DHT22;67555;47.660;19.622;2023-11-18T09:03:21;6.80;65.70
78297;DHT22;67555;47.660;19.622;2023-11-18T09:05:55;6.90;66.90
78297;DHT22;67555;47.660;19.622;2023-11-18T09:08:38;7.00;65.50
78297;DHT22;67555;47.660;19.622;2023-11-18T09:11:06;7.00;66.50
78297;DHT22;67555;47.660;19.622;2023-11-18T09:13:33;7.00;65.30
78297;DHT22;67555;47.660;19.622;2023-11-18T09:16:03;7.00;64.60
78297;DHT22;67555;47.660;19.622;2023-11-18T09:18:33;7.10;65.10
78297;DHT22;67555;47.660;19.622;2023-11-18T09:21:04;7.10;65.40
78297;DHT22;67555;47.660;19.622;2023-11-18T09:23:34;7.20;64.30
78297;DHT22;67555;47.660;19.622;2023-11-18T09:26:00;7.20;64.70
78297;DHT22;67555;47.660;19.622;2023-11-18T09:28:27;7.20;64.80
78297;DHT22;67555;47.660;19.622;2023-11-18T09:30:58;7.20;64.00
78297;DHT22;67555;47.660;19.622;2023-11-18T09:33:26;7.20;64.00
78297;DHT22;67555;47.660;19.622;2023-11-18T09:36:08;7.40;64.40
78297;DHT22;67555;47.660;19.622;2023-11-18T09:38:39;7.40;63.60
78297;DHT22;67555;47.660;19.622;2023-11-18T09:41:11;7.40;64.00
78297;DHT22;67555;47.660;19.622;2023-11-18T09:43:38;7.50;63.90
78297;DHT22;67555;47.660;19.622;2023-11-18T09:48:51;7.50;63.60
78297;DHT22;67555;47.660;19.622;2023-11-18T09:51:42;7.50;63.00
78297;DHT22;67555;47.660;19.622;2023-11-18T09:57:23;7.50;63.00
78297;DHT22;67555;47.660;19.622;2023-11-18T10:00:03;7.50;63.10
78297;DHT22;67555;47.660;19.622;2023-11-18T10:02:54;7.60;62.80
78297;DHT22;67555;47.660;19.622;2023-11-18T10:05:22;7.50;62.40
78297;DHT22;67555;47.660;19.622;2023-11-18T10:07:52;7.50;62.60
78297;DHT22;67555;47.660;19.622;2023-11-18T10:10:18;7.50;62.70
78297;DHT22;67555;47.660;19.622;2023-11-18T10:12:49;7.60;63.00
78297;DHT22;67555;47.660;19.622;2023-11-18T10:15:21;7.60;63.00
78297;DHT22;67555;47.660;19.622;2023-11-18T10:17:52;7.70;62.40
78297;DHT22;67555;47.660;19.622;2023-11-18T10:20:43;7.70;62.20
78297;DHT22;67555;47.660;19.622;2023-11-18T10:23:17;7.80;62.10
78297;DHT22;67555;47.660;19.622;2023-11-18T10:25:50;7.80;61.80
78297;DHT22;67555;47.660;19.622;2023-11-18T10:30:48;7.80;62.00
78297;DHT22;67555;47.660;19.622;2023-11-18T10:33:14;7.80;62.10
78297;DHT22;67555;47.660;19.622;2023-11-18T10:35:51;7.90;62.20
78297;DHT22;67555;47.660;19.622;2023-11-18T10:38:18;8.00;61.30
78297;DHT22;67555;47.660;19.622;2023-11-18T10:40:44;8.00;60.80
78297;DHT22;67555;47.660;19.622;2023-11-18T10:43:10;8.00;60.40
78297;DHT22;67555;47.660;19.622;2023-11-18T10:45:36;8.00;61.60
78297;DHT22;67555;47.660;19.622;2023-11-18T10:48:06;8.00;61.10
78297;DHT22;67555;47.660;19.622;2023-11-18T10:50:32;8.00;61.40
78297;DHT22;67555;47.660;19.622;2023-11-18T10:53:01;8.10;61.70
78297;DHT22;67555;47.660;19.622;2023-11-18T10:55:36;8.10;61.30
78297;DHT22;67555;47.660;19.622;2023-11-18T10:58:02;8.10;60.50
78297;DHT22;67555;47.660;19.622;2023-11-18T11:00:48;8.10;60.50
78297;DHT22;67555;47.660;19.622;2023-11-18T11:03:15;8.10;60.50
78297;DHT22;67555;47.660;19.622;2023-11-18T11:05:41;8.10;61.20
78297;DHT22;67555;47.660;19.622;2023-11-18T11:08:10;8.10;60.40
78297;DHT22;67555;47.660;19.622;2023-11-18T11:10:45;8.10;60.30
78297;DHT22;67555;47.660;19.622;2023-11-18T11:13:14;8.20;60.80
78297;DHT22;67555;47.660;19.622;2023-11-18T11:15:43;8.20;60.50
78297;DHT22;67555;47.660;19.622;2023-11-18T11:18:12;8.20;60.50
78297;DHT22;67555;47.660;19.622;2023-11-18T11:20:59;8.30;60.20
78297;DHT22;67555;47.660;19.622;2023-11-18T11:23:50;8.30;59.50
78297;DHT22;67555;47.660;19.622;2023-11-18T11:29:32;8.30;59.00
78297;DHT22;67555;47.660;19.622;2023-11-18T11:32:13;8.30;59.20
78297;DHT22;67555;47.660;19.622;2023-11-18T11:34:53;8.40;60.00
78297;DHT22;67555;47.660;19.622;2023-11-18T11:37:21;8.40;60.30
78297;DHT22;67555;47.660;19.622;2023-11-18T11:39:50;8.40;59.40
78297;DHT22;67555;47.660;19.622;2023-11-18T11:42:20;8.30;59.80
78297;DHT22;67555;47.660;19.622;2023-11-18T11:44:48;8.40;59.60
78297;DHT22;67555;47.660;19.622;2023-11-18T11:47:15;8.30;59.00
78297;DHT22;67555;47.660;19.622;2023-11-18T11:50:10;8.30;59.70
78297;DHT22;67555;47.660;19.622;2023-11-18T11:52:44;8.40;59.10
78297;DHT22;67555;47.660;19.622;2023-11-18T11:55:41;8.40;58.70
78297;DHT22;67555;47.660;19.622;2023-11-18T11:58:29;8.50;58.70
78297;DHT22;67555;47.660;19.622;2023-11-18T12:01:00;8.60;60.10
78297;DHT22;67555;47.660;19.622;2023-11-18T12:03:26;8.80;58.20
78297;DHT22;67555;47.660;19.622;2023-11-18T12:05:55;8.80;57.40
78297;DHT22;67555;47.660;19.622;2023-11-18T12:08:24;9.00;57.30
78297;DHT22;67555;47.660;19.622;2023-11-18T12:10:52;9.10;57.10
78297;DHT22;67555;47.660;19.622;2023-11-18T12:13:19;9.20;56.90
78297;DHT22;67555;47.660;19.622;2023-11-18T12:15:52;9.30;56.90
78297;DHT22;67555;47.660;19.622;2023-11-18T12:18:41;9.20;56.00
78297;DHT22;67555;47.660;19.622;2023-11-18T12:21:09;9.00;56.40
78297;DHT22;67555;47.660;19.622;2023-11-18T12:24:27;8.80;56.20
78297;DHT22;67555;47.660;19.622;2023-11-18T12:26:54;8.80;56.30
78297;DHT22;67555;47.660;19.622;2023-11-18T12:29:33;8.80;56.20
78297;DHT22;67555;47.660;19.622;2023-11-18T12:32:01;8.80;56.50
78297;DHT22;67555;47.660;19.622;2023-11-18T12:34:50;8.90;55.80
78297;DHT22;67555;47.660;19.622;2023-11-18T12:37:33;8.80;56.20
78297;DHT22;67555;47.660;19.622;2023-11-18T12:43:00;8.40;58.20
78297;DHT22;67555;47.660;19.622;2023-11-18T12:45:43;8.20;58.30
78297;DHT22;67555;47.660;19.622;2023-11-18T12:48:20;8.00;59.70
78297;DHT22;67555;47.660;19.622;2023-11-18T12:50:53;8.00;60.00
78297;DHT22;67555;47.660;19.622;2023-11-18T12:53:21;8.10;60.40
78297;DHT22;67555;47.660;19.622;2023-11-18T12:55:49;8.20;58.40
78297;DHT22;67555;47.660;19.622;2023-11-18T12:58:16;8.30;57.60
78297;DHT22;67555;47.660;19.622;2023-11-18T13:00:43;8.40;58.00
78297;DHT22;67555;47.660;19.622;2023-11-18T13:03:10;8.40;57.40
78297;DHT22;67555;47.660;19.622;2023-11-18T13:05:37;8.50;57.40
78297;DHT22;67555;47.660;19.622;2023-11-18T13:08:04;8.50;57.20
78297;DHT22;67555;47.660;19.622;2023-11-18T13:10:29;8.50;57.60
78297;DHT22;67555;47.660;19.622;2023-11-18T13:12:55;8.50;58.00
78297;DHT22;67555;47.660;19.622;2023-11-18T13:15:24;8.50;58.00
78297;DHT22;67555;47.660;19.622;2023-11-18T13:18:00;8.50;57.80
78297;DHT22;67555;47.660;19.622;2023-11-18T13:20:27;8.50;57.90
78297;DHT22;67555;47.660;19.622;2023-11-18T13:22:53;8.60;58.20
78297;DHT22;67555;47.660;19.622;2023-11-18T13:25:24;8.60;58.10
78297;DHT22;67555;47.660;19.622;2023-11-18T13:27:50;8.60;57.10
78297;DHT22;67555;47.660;19.622;2023-11-18T13:30:17;8.60;56.30
78297;DHT22;67555;47.660;19.622;2023-11-18T13:32:43;8.50;56.20
78297;DHT22;67555;47.660;19.622;2023-11-18T13:35:12;8.40;55.90
78297;DHT22;67555;47.660;19.622;2023-11-18T13:37:47;8.30;56.50
78297;DHT22;67555;47.660;19.622;2023-11-18T13:40:13;8.30;56.70
78297;DHT22;67555;47.660;19.622;2023-11-18T13:42:40;8.40;56.40
78297;DHT22;67555;47.660;19.622;2023-11-18T13:45:12;8.40;56.20
78297;DHT22;67555;47.660;19.622;2023-11-18T13:47:47;8.20;55.40
78297;DHT22;67555;47.660;19.622;2023-11-18T13:50:15;8.10;55.50
78297;DHT22;67555;47.660;19.622;2023-11-18T13:52:42;8.00;55.50
78297;DHT22;67555;47.660;19.622;2023-11-18T13:55:12;7.80;54.90
78297;DHT22;67555;47.660;19.622;2023-11-18T13:57:46;7.80;55.40
78297;DHT22;67555;47.660;19.622;2023-11-18T14:00:13;7.70;55.10
78297;DHT22;67555;47.660;19.622;2023-11-18T14:02:41;7.60;55.60
78297;DHT22;67555;47.660;19.622;2023-11-18T14:05:18;7.50;55.80
78297;DHT22;67555;47.660;19.622;2023-11-18T14:07:47;7.50;56.30
78297;DHT22;67555;47.660;19.622;2023-11-18T14:10:13;7.50;56.10
78297;DHT22;67555;47.660;19.622;2023-11-18T14:12:40;7.40;55.80
78297;DHT22;67555;47.660;19.622;2023-11-18T14:15:06;7.30;55.70
78297;DHT22;67555;47.660;19.622;2023-11-18T14:17:35;7.30;55.20
78297;DHT22;67555;47.660;19.622;2023-11-18T14:20:02;7.20;55.70
78297;DHT22;67555;47.660;19.622;2023-11-18T14:22:27;7.20;55.60
78297;DHT22;67555;47.660;19.622;2023-11-18T14:24:53;7.10;55.90
78297;DHT22;67555;47.660;19.622;2023-11-18T14:27:19;7.00;55.70
78297;DHT22;67555;47.660;19.622;2023-11-18T14:29:45;7.00;56.00
78297;DHT22;67555;47.660;19.622;2023-11-18T14:32:12;7.00;55.70
78297;DHT22;67555;47.660;19.622;2023-11-18T14:34:39;6.90;56.10
78297;DHT22;67555;47.660;19.622;2023-11-18T14:37:07;6.90;56.30
78297;DHT22;67555;47.660;19.622;2023-11-18T14:39:33;6.80;56.60
78297;DHT22;67555;47.660;19.622;2023-11-18T14:42:01;6.80;57.60
78297;DHT22;67555;47.660;19.622;2023-11-18T14:44:27;6.70;58.50
78297;DHT22;67555;47.660;19.622;2023-11-18T14:46:53;6.60;59.00
78297;DHT22;67555;47.660;19.622;2023-11-18T14:49:20;6.50;59.30
78297;DHT22;67555;47.660;19.622;2023-11-18T14:51:45;6.40;59.50
78297;DHT22;67555;47.660;19.622;2023-11-18T14:54:11;6.40;59.70
78297;DHT22;67555;47.660;19.622;2023-11-18T14:56:37;6.30;60.10
78297;DHT22;67555;47.660;19.622;2023-11-18T14:59:03;6.30;60.10
78297;DHT22;67555;47.660;19.622;2023-11-18T15:01:30;6.20;60.40
78297;DHT22;67555;47.660;19.622;2023-11-18T15:03:56;6.10;60.70
78297;DHT22;67555;47.660;19.622;2023-11-18T15:06:26;6.00;61.10
78297;DHT22;67555;47.660;19.622;2023-11-18T15:08:52;6.00;61.00
78297;DHT22;67555;47.660;19.622;2023-11-18T15:11:22;5.90;61.30
78297;DHT22;67555;47.660;19.622;2023-11-18T15:13:49;5.90;61.10
78297;DHT22;67555;47.660;19.622;2023-11-18T15:16:15;5.80;61.20
78297;DHT22;67555;47.660;19.622;2023-11-18T15:18:44;5.80;61.20
78297;DHT22;67555;47.660;19.622;2023-11-18T15:21:12;5.70;61.40
78297;DHT22;67555;47.660;19.622;2023-11-18T15:23:41;5.70;61.60
78297;DHT22;67555;47.660;19.622;2023-11-18T15:26:07;5.70;61.50
78297;DHT22;67555;47.660;19.622;2023-11-18T15:28:34;5.60;61.90
78297;DHT22;67555;47.660;19.622;2023-11-18T15:31:00;5.60;62.20
78297;DHT22;67555;47.660;19.622;2023-11-18T15:33:28;5.50;62.60
78297;DHT22;67555;47.660;19.622;2023-11-18T15:35:54;5.50;63.20
78297;DHT22;67555;47.660;19.622;2023-11-18T15:38:20;5.40;63.90
78297;DHT22;67555;47.660;19.622;2023-11-18T15:40:48;5.30;64.60
78297;DHT22;67555;47.660;19.622;2023-11-18T15:43:15;5.20;65.20
78297;DHT22;67555;47.660;19.622;2023-11-18T15:45:42;5.20;65.40
78297;DHT22;67555;47.660;19.622;2023-11-18T15:48:10;5.20;65.40
78297;DHT22;67555;47.660;19.622;2023-11-18T15:50:36;5.10;65.50
78297;DHT22;67555;47.660;19.622;2023-11-18T15:53:04;5.10;65.70
78297;DHT22;67555;47.660;19.622;2023-11-18T15:55:32;5.10;66.00
78297;DHT22;67555;47.660;19.622;2023-11-18T15:57:57;5.00;66.30